Weather at Sipitang Airport

Public forecast

Using degrees Celsius for public forecast. Weather courtesy of forecast.io.

Closest aviation weather report (METAR) to Sipitang Airport

Report is more than 6 hours old.

Closest report is Labuan Airport, 22.2 nm (41.1 km) NW. Retrieved 2022/09/17 19:00 UTC (17 days ago):

WBKL 171900Z 00000KT 9999 FEW035 26/24 Q1009

Closest aviation forecast (TAF) to Sipitang Airport

Forecast is more than 12 hours old.

Closest forecast is Labuan Airport, 22.2 nm (41.1 km) NW. Retrieved 2022/09/17 18:00 UTC (17 days ago):

TAF WBKL 171700Z 1718/1818 VRB03KT 9999 FEW015 TEMPO 1718/1721 4000 TSRA FEW010 FEW015CB